sensor_id;sensor_type;location;lat;lon;timestamp;pressure;altitude;pressure_sealevel;temperature;humidity
52735;BME280;38631;47.572;10.704;2023-04-08T00:00:12;92614.91;;;4.20;100.00
52735;BME280;38631;47.572;10.704;2023-04-08T00:02:38;92601.22;;;4.23;100.00
52735;BME280;38631;47.572;10.704;2023-04-08T00:05:04;92604.13;;;4.26;100.00
52735;BME280;38631;47.572;10.704;2023-04-08T00:07:29;92615.69;;;4.20;100.00
52735;BME280;38631;47.572;10.704;2023-04-08T00:09:55;92603.34;;;4.21;100.00
52735;BME280;38631;47.572;10.704;2023-04-08T00:12:21;92604.66;;;4.18;100.00
52735;BME280;38631;47.572;10.704;2023-04-08T00:14:46;92610.44;;;4.15;100.00
52735;BME280;38631;47.572;10.704;2023-04-08T00:17:11;92608.88;;;4.14;100.00
52735;BME280;38631;47.572;10.704;2023-04-08T00:19:37;92615.94;;;4.14;100.00
52735;BME280;38631;47.572;10.704;2023-04-08T00:22:02;92606.25;;;4.04;100.00
52735;BME280;38631;47.572;10.704;2023-04-08T00:24:28;92616.22;;;4.07;100.00
52735;BME280;38631;47.572;10.704;2023-04-08T00:26:53;92613.59;;;4.02;100.00
52735;BME280;38631;47.572;10.704;2023-04-08T00:29:18;92615.44;;;4.01;100.00
52735;BME280;38631;47.572;10.704;2023-04-08T00:31:44;92614.13;;;4.09;100.00
52735;BME280;38631;47.572;10.704;2023-04-08T00:34:09;92625.13;;;4.06;100.00
52735;BME280;38631;47.572;10.704;2023-04-08T00:36:35;92621.19;;;4.08;100.00
52735;BME280;38631;47.572;10.704;2023-04-08T00:39:01;92620.69;;;4.11;100.00
52735;BME280;38631;47.572;10.704;2023-04-08T00:41:28;92620.41;;;3.98;100.00
52735;BME280;38631;47.572;10.704;2023-04-08T00:43:53;92619.88;;;3.85;100.00
52735;BME280;38631;47.572;10.704;2023-04-08T00:46:19;92624.09;;;4.02;100.00
52735;BME280;38631;47.572;10.704;2023-04-08T00:48:45;92621.19;;;4.08;100.00
52735;BME280;38631;47.572;10.704;2023-04-08T00:51:11;92619.09;;;3.90;100.00
52735;BME280;38631;47.572;10.704;2023-04-08T00:53:37;92622.72;;;3.74;100.00
52735;BME280;38631;47.572;10.704;2023-04-08T00:56:02;92624.31;;;3.75;100.00
52735;BME280;38631;47.572;10.704;2023-04-08T00:58:28;92617.78;;;3.77;100.00
52735;BME280;38631;47.572;10.704;2023-04-08T01:00:59;92612.50;;;3.62;100.00
52735;BME280;38631;47.572;10.704;2023-04-08T01:03:53;92626.72;;;3.97;100.00
52735;BME280;38631;47.572;10.704;2023-04-08T01:06:31;92616.22;;;4.02;100.00
52735;BME280;38631;47.572;10.704;2023-04-08T01:09:04;92621.19;;;4.08;100.00
52735;BME280;38631;47.572;10.704;2023-04-08T01:11:31;92613.31;;;4.08;100.00
52735;BME280;38631;47.572;10.704;2023-04-08T01:14:00;92618.56;;;4.03;100.00
52735;BME280;38631;47.572;10.704;2023-04-08T01:16:30;92630.91;;;3.98;100.00
52735;BME280;38631;47.572;10.704;2023-04-08T01:18:57;92615.13;;;3.72;100.00
52735;BME280;38631;47.572;10.704;2023-04-08T01:21:22;92614.34;;;3.72;100.00
52735;BME280;38631;47.572;10.704;2023-04-08T01:24:10;92619.34;;;3.94;100.00
52735;BME280;38631;47.572;10.704;2023-04-08T01:26:41;92608.56;;;3.64;100.00
52735;BME280;38631;47.572;10.704;2023-04-08T01:29:07;92622.44;;;3.55;100.00
52735;BME280;38631;47.572;10.704;2023-04-08T01:31:35;92611.75;;;3.82;100.00
52735;BME280;38631;47.572;10.704;2023-04-08T01:34:02;92610.69;;;3.98;100.00
52735;BME280;38631;47.572;10.704;2023-04-08T01:36:29;92615.94;;;4.14;100.00
52735;BME280;38631;47.572;10.704;2023-04-08T01:38:57;92607.03;;;4.04;100.00
52735;BME280;38631;47.572;10.704;2023-04-08T01:41:23;92610.19;;;4.11;100.00
52735;BME280;38631;47.572;10.704;2023-04-08T01:43:50;92608.88;;;4.04;100.00
52735;BME280;38631;47.572;10.704;2023-04-08T01:46:16;92605.72;;;4.07;100.00
52735;BME280;38631;47.572;10.704;2023-04-08T01:48:42;92605.97;;;4.10;100.00
52735;BME280;38631;47.572;10.704;2023-04-08T01:51:10;92609.66;;;4.09;100.00
52735;BME280;38631;47.572;10.704;2023-04-08T01:53:35;92610.44;;;4.00;100.00
52735;BME280;38631;47.572;10.704;2023-04-08T01:56:05;92618.31;;;4.05;100.00
52735;BME280;38631;47.572;10.704;2023-04-08T01:58:37;92620.16;;;4.09;100.00
52735;BME280;38631;47.572;10.704;2023-04-08T02:01:05;92617.53;;;4.15;100.00
52735;BME280;38631;47.572;10.704;2023-04-08T02:03:35;92620.94;;;3.95;100.00
52735;BME280;38631;47.572;10.704;2023-04-08T02:06:00;92617.00;;;4.02;100.00
52735;BME280;38631;47.572;10.704;2023-04-08T02:08:26;92626.44;;;3.98;100.00
52735;BME280;38631;47.572;10.704;2023-04-08T02:10:51;92628.56;;;4.01;100.00
52735;BME280;38631;47.572;10.704;2023-04-08T02:13:17;92618.31;;;4.05;100.00
52735;BME280;38631;47.572;10.704;2023-04-08T02:15:46;92620.16;;;3.99;100.00
52735;BME280;38631;47.572;10.704;2023-04-08T02:18:21;92624.88;;;3.92;100.00
52735;BME280;38631;47.572;10.704;2023-04-08T02:21:01;92629.59;;;4.05;100.00
52735;BME280;38631;47.572;10.704;2023-04-08T02:23:31;92620.16;;;3.89;100.00
52735;BME280;38631;47.572;10.704;2023-04-08T02:26:00;92627.75;;;3.90;100.00
52735;BME280;38631;47.572;10.704;2023-04-08T02:28:27;92625.91;;;3.86;100.00
52735;BME280;38631;47.572;10.704;2023-04-08T02:30:53;92642.75;;;3.95;100.00
52735;BME280;38631;47.572;10.704;2023-04-08T02:33:21;92629.59;;;3.80;100.00
52735;BME280;38631;47.572;10.704;2023-04-08T02:35:48;92637.72;;;3.73;100.00
52735;BME280;38631;47.572;10.704;2023-04-08T02:38:15;92633.78;;;3.76;100.00
52735;BME280;38631;47.572;10.704;2023-04-08T02:40:41;92649.50;;;3.60;100.00
52735;BME280;38631;47.572;10.704;2023-04-08T02:43:06;92641.91;;;3.69;100.00
52735;BME280;38631;47.572;10.704;2023-04-08T02:45:35;92645.47;;;3.32;100.00
52735;BME280;38631;47.572;10.704;2023-04-08T02:48:02;92645.47;;;3.32;100.00
52735;BME280;38631;47.572;10.704;2023-04-08T02:50:27;92645.44;;;3.22;100.00
52735;BME280;38631;47.572;10.704;2023-04-08T02:52:53;92647.25;;;3.11;100.00
52735;BME280;38631;47.572;10.704;2023-04-08T02:55:18;92636.97;;;3.05;100.00
52735;BME280;38631;47.572;10.704;2023-04-08T02:57:46;92651.72;;;3.21;100.00
52735;BME280;38631;47.572;10.704;2023-04-08T03:00:12;92641.34;;;2.84;100.00
52735;BME280;38631;47.572;10.704;2023-04-08T03:02:37;92643.63;;;2.75;100.00
52735;BME280;38631;47.572;10.704;2023-04-08T03:05:03;92643.50;;;2.97;100.00
52735;BME280;38631;47.572;10.704;2023-04-08T03:07:30;92644.47;;;2.86;100.00
52735;BME280;38631;47.572;10.704;2023-04-08T03:09:55;92644.28;;;2.97;100.00
52735;BME280;38631;47.572;10.704;2023-04-08T03:12:21;92648.44;;;2.93;100.00
52735;BME280;38631;47.572;10.704;2023-04-08T03:14:47;92647.38;;;2.84;100.00
52735;BME280;38631;47.572;10.704;2023-04-08T03:17:13;92646.03;;;2.39;100.00
52735;BME280;38631;47.572;10.704;2023-04-08T03:19:38;92633.84;;;2.60;100.00
52735;BME280;38631;47.572;10.704;2023-04-08T03:22:04;92642.38;;;2.40;100.00
52735;BME280;38631;47.572;10.704;2023-04-08T03:24:29;92627.94;;;2.37;100.00
52735;BME280;38631;47.572;10.704;2023-04-08T03:26:55;92632.50;;;2.52;100.00
52735;BME280;38631;47.572;10.704;2023-04-08T03:29:20;92637.47;;;2.49;100.00
52735;BME280;38631;47.572;10.704;2023-04-08T03:31:45;92640.09;;;2.49;100.00
52735;BME280;38631;47.572;10.704;2023-04-08T03:34:11;92639.78;;;2.45;100.00
52735;BME280;38631;47.572;10.704;2023-04-08T03:36:36;92636.75;;;2.58;100.00
52735;BME280;38631;47.572;10.704;2023-04-08T03:39:01;92641.72;;;2.60;100.00
52735;BME280;38631;47.572;10.704;2023-04-08T03:41:28;92644.19;;;2.40;100.00
52735;BME280;38631;47.572;10.704;2023-04-08T03:43:53;92631.34;;;2.38;100.00
52735;BME280;38631;47.572;10.704;2023-04-08T03:46:19;92642.47;;;2.55;100.00
52735;BME280;38631;47.572;10.704;2023-04-08T03:48:44;92642.50;;;2.60;100.00
52735;BME280;38631;47.572;10.704;2023-04-08T03:51:10;92637.22;;;2.55;100.00
52735;BME280;38631;47.572;10.704;2023-04-08T03:53:35;92649.13;;;2.31;100.00
52735;BME280;38631;47.572;10.704;2023-04-08T03:56:01;92649.81;;;2.53;100.00
52735;BME280;38631;47.572;10.704;2023-04-08T03:58:28;92643.56;;;2.59;100.00
52735;BME280;38631;47.572;10.704;2023-04-08T04:00:53;92644.56;;;2.53;100.00
52735;BME280;38631;47.572;10.704;2023-04-08T04:03:19;92647.78;;;2.66;100.00
52735;BME280;38631;47.572;10.704;2023-04-08T04:05:44;92651.00;;;2.78;100.00
52735;BME280;38631;47.572;10.704;2023-04-08T04:08:10;92644.19;;;2.77;100.00
52735;BME280;38631;47.572;10.704;2023-04-08T04:10:35;92659.09;;;2.71;100.00
52735;BME280;38631;47.572;10.704;2023-04-08T04:13:00;92658.03;;;2.72;100.00
52735;BME280;38631;47.572;10.704;2023-04-08T04:15:26;92655.44;;;2.77;100.00
52735;BME280;38631;47.572;10.704;2023-04-08T04:17:51;92667.00;;;2.76;100.00
52735;BME280;38631;47.572;10.704;2023-04-08T04:20:17;92672.25;;;2.76;100.00
52735;BME280;38631;47.572;10.704;2023-04-08T04:22:42;92659.09;;;2.71;100.00
52735;BME280;38631;47.572;10.704;2023-04-08T04:25:08;92663.22;;;2.62;100.00
52735;BME280;38631;47.572;10.704;2023-04-08T04:27:34;92668.84;;;2.76;100.00
52735;BME280;38631;47.572;10.704;2023-04-08T04:30:01;92678.22;;;2.72;100.00
52735;BME280;38631;47.572;10.704;2023-04-08T04:32:26;92668.00;;;2.70;100.00
52735;BME280;38631;47.572;10.704;2023-04-08T04:34:52;92669.09;;;2.79;100.00
52735;BME280;38631;47.572;10.704;2023-04-08T04:37:17;92680.09;;;2.76;100.00
52735;BME280;38631;47.572;10.704;2023-04-08T04:39:43;92674.09;;;2.81;100.00
52735;BME280;38631;47.572;10.704;2023-04-08T04:42:08;92687.66;;;2.73;100.00
52735;BME280;38631;47.572;10.704;2023-04-08T04:44:34;92684.34;;;2.88;100.00
52735;BME280;38631;47.572;10.704;2023-04-08T04:46:59;92683.78;;;2.80;100.00
52735;BME280;38631;47.572;10.704;2023-04-08T04:49:25;92679.38;;;2.86;100.00
52735;BME280;38631;47.572;10.704;2023-04-08T04:51:50;92680.41;;;2.85;100.00
52735;BME280;38631;47.572;10.704;2023-04-08T04:54:16;92680.47;;;2.95;100.00
52735;BME280;38631;47.572;10.704;2023-04-08T04:56:41;92676.47;;;2.88;100.00
52735;BME280;38631;47.572;10.704;2023-04-08T04:59:06;92681.47;;;2.84;100.00
52735;BME280;38631;47.572;10.704;2023-04-08T05:01:33;92687.53;;;2.95;100.00
52735;BME280;38631;47.572;10.704;2023-04-08T05:03:58;92691.97;;;2.89;100.00
52735;BME280;38631;47.572;10.704;2023-04-08T05:06:23;92688.56;;;2.89;100.00
52735;BME280;38631;47.572;10.704;2023-04-08T05:08:49;92687.28;;;2.91;100.00
52735;BME280;38631;47.572;10.704;2023-04-08T05:11:15;92687.53;;;2.90;100.00
52735;BME280;38631;47.572;10.704;2023-04-08T05:13:42;92689.91;;;2.91;100.00
52735;BME280;38631;47.572;10.704;2023-04-08T05:16:08;92689.59;;;2.88;100.00
52735;BME280;38631;47.572;10.704;2023-04-08T05:18:33;92694.13;;;2.97;100.00
52735;BME280;38631;47.572;10.704;2023-04-08T05:20:59;92691.78;;;3.01;100.00
52735;BME280;38631;47.572;10.704;2023-04-08T05:23:24;92695.22;;;3.07;100.00
52735;BME280;38631;47.572;10.704;2023-04-08T05:25:50;92700.09;;;2.88;100.00
52735;BME280;38631;47.572;10.704;2023-04-08T05:28:15;92693.31;;;2.92;100.00
52735;BME280;38631;47.572;10.704;2023-04-08T05:30:41;92689.31;;;2.84;100.00
52735;BME280;38631;47.572;10.704;2023-04-08T05:33:06;92700.16;;;2.98;100.00
52735;BME280;38631;47.572;10.704;2023-04-08T05:35:31;92687.75;;;2.88;100.00
52735;BME280;38631;47.572;10.704;2023-04-08T05:37:57;92692.03;;;2.99;100.00
52735;BME280;38631;47.572;10.704;2023-04-08T05:40:22;92694.69;;;3.05;100.00
52735;BME280;38631;47.572;10.704;2023-04-08T05:42:48;92695.47;;;3.05;100.00
52735;BME280;38631;47.572;10.704;2023-04-08T05:45:13;92692.09;;;3.10;100.00
52735;BME280;38631;47.572;10.704;2023-04-08T05:47:38;92697.13;;;3.16;100.00
52735;BME280;38631;47.572;10.704;2023-04-08T05:50:04;92696.06;;;3.17;100.00
52735;BME280;38631;47.572;10.704;2023-04-08T05:52:30;92691.88;;;3.16;100.00
52735;BME280;38631;47.572;10.704;2023-04-08T05:54:55;92698.38;;;3.09;100.00
52735;BME280;38631;47.572;10.704;2023-04-08T05:57:20;92695.28;;;3.17;100.00
52735;BME280;38631;47.572;10.704;2023-04-08T05:59:46;92702.06;;;3.13;100.00
52735;BME280;38631;47.572;10.704;2023-04-08T06:02:11;92699.50;;;3.23;100.00
52735;BME280;38631;47.572;10.704;2023-04-08T06:04:36;92696.09;;;3.22;100.00
52735;BME280;38631;47.572;10.704;2023-04-08T06:07:02;92704.44;;;3.14;100.00
52735;BME280;38631;47.572;10.704;2023-04-08T06:09:28;92710.22;;;3.16;100.00
52735;BME280;38631;47.572;10.704;2023-04-08T06:11:54;92708.69;;;3.25;100.00
52735;BME280;38631;47.572;10.704;2023-04-08T06:14:20;92702.69;;;3.30;100.00
52735;BME280;38631;47.572;10.704;2023-04-08T06:16:46;92708.50;;;3.42;100.00
52735;BME280;38631;47.572;10.704;2023-04-08T06:19:11;92716.59;;;3.36;100.00
52735;BME280;38631;47.572;10.704;2023-04-08T06:21:36;92705.31;;;3.30;100.00
52735;BME280;38631;47.572;10.704;2023-04-08T06:24:02;92710.53;;;3.25;100.00
52735;BME280;38631;47.572;10.704;2023-04-08T06:26:27;92705.56;;;3.29;100.00
52735;BME280;38631;47.572;10.704;2023-04-08T06:28:53;92712.91;;;3.27;100.00
52735;BME280;38631;47.572;10.704;2023-04-08T06:31:18;92711.31;;;3.25;100.00
52735;BME280;38631;47.572;10.704;2023-04-08T06:33:43;92721.06;;;3.35;100.00
52735;BME280;38631;47.572;10.704;2023-04-08T06:36:09;92722.09;;;3.29;100.00
52735;BME280;38631;47.572;10.704;2023-04-08T06:38:37;92718.72;;;3.34;100.00
52735;BME280;38631;47.572;10.704;2023-04-08T06:41:03;92730.03;;;3.44;100.00
52735;BME280;38631;47.572;10.704;2023-04-08T06:43:29;92715.06;;;3.40;100.00
52735;BME280;38631;47.572;10.704;2023-04-08T06:45:55;92708.25;;;3.44;100.00
52735;BME280;38631;47.572;10.704;2023-04-08T06:48:21;92715.81;;;3.35;100.00
52735;BME280;38631;47.572;10.704;2023-04-08T06:50:47;92715.88;;;3.45;100.00
52735;BME280;38631;47.572;10.704;2023-04-08T06:53:13;92721.94;;;3.51;100.00
52735;BME280;38631;47.572;10.704;2023-04-08T06:55:38;92718.53;;;3.56;100.00
52735;BME280;38631;47.572;10.704;2023-04-08T06:58:04;92710.97;;;3.64;100.00
52735;BME280;38631;47.572;10.704;2023-04-08T07:00:29;92715.91;;;3.56;100.00
52735;BME280;38631;47.572;10.704;2023-04-08T07:02:54;92712.81;;;3.69;100.00
52735;BME280;38631;47.572;10.704;2023-04-08T07:05:20;92718.31;;;3.67;100.00
52735;BME280;38631;47.572;10.704;2023-04-08T07:07:45;92717.25;;;3.63;100.00
52735;BME280;38631;47.572;10.704;2023-04-08T07:10:11;92724.59;;;3.61;100.00
52735;BME280;38631;47.572;10.704;2023-04-08T07:12:37;92723.56;;;3.67;100.00
52735;BME280;38631;47.572;10.704;2023-04-08T07:15:02;92716.00;;;3.76;100.00
52735;BME280;38631;47.572;10.704;2023-04-08T07:17:28;92721.50;;;3.80;100.00
52735;BME280;38631;47.572;10.704;2023-04-08T07:19:53;92728.06;;;3.77;100.00
52735;BME280;38631;47.572;10.704;2023-04-08T07:22:20;92725.72;;;3.91;100.00
52735;BME280;38631;47.572;10.704;2023-04-08T07:24:45;92726.78;;;3.90;100.00
52735;BME280;38631;47.572;10.704;2023-04-08T07:27:14;92721.25;;;3.76;100.00
52735;BME280;38631;47.572;10.704;2023-04-08T07:29:40;92727.28;;;3.77;100.00
52735;BME280;38631;47.572;10.704;2023-04-08T07:32:06;92739.16;;;3.95;100.00
52735;BME280;38631;47.572;10.704;2023-04-08T07:34:33;92720.72;;;3.79;100.00
52735;BME280;38631;47.572;10.704;2023-04-08T07:36:59;92725.25;;;4.04;100.00
52735;BME280;38631;47.572;10.704;2023-04-08T07:39:25;92725.81;;;4.11;100.00
52735;BME280;38631;47.572;10.704;2023-04-08T07:41:51;92722.31;;;3.90;100.00
52735;BME280;38631;47.572;10.704;2023-04-08T07:44:16;92723.69;;;4.14;100.00
52735;BME280;38631;47.572;10.704;2023-04-08T07:46:41;92713.97;;;4.14;100.00
52735;BME280;38631;47.572;10.704;2023-04-08T07:49:09;92724.75;;;4.23;100.00
52735;BME280;38631;47.572;10.704;2023-04-08T07:51:35;92727.94;;;4.30;100.00
52735;BME280;38631;47.572;10.704;2023-04-08T07:54:00;92728.69;;;4.10;100.00
52735;BME280;38631;47.572;10.704;2023-04-08T07:56:26;92732.13;;;4.26;100.00
52735;BME280;38631;47.572;10.704;2023-04-08T07:58:51;92724.53;;;4.40;100.00
52735;BME280;38631;47.572;10.704;2023-04-08T08:01:21;92718.19;;;4.25;100.00
52735;BME280;38631;47.572;10.704;2023-04-08T08:03:47;92723.47;;;4.41;100.00
52735;BME280;38631;47.572;10.704;2023-04-08T08:06:14;92722.69;;;4.35;100.00
52735;BME280;38631;47.572;10.704;2023-04-08T08:08:39;92719.25;;;4.40;100.00
52735;BME280;38631;47.572;10.704;2023-04-08T08:11:05;92726.38;;;4.65;100.00
52735;BME280;38631;47.572;10.704;2023-04-08T08:13:30;92722.97;;;4.59;100.00
52735;BME280;38631;47.572;10.704;2023-04-08T08:15:56;92726.38;;;4.80;100.00
52735;BME280;38631;47.572;10.704;2023-04-08T08:18:22;92734.00;;;4.97;100.00
52735;BME280;38631;47.572;10.704;2023-04-08T08:20:48;92727.13;;;5.01;100.00
52735;BME280;38631;47.572;10.704;2023-04-08T08:23:13;92717.91;;;4.98;100.00
52735;BME280;38631;47.572;10.704;2023-04-08T08:25:39;92714.25;;;5.00;100.00
52735;BME280;38631;47.572;10.704;2023-04-08T08:28:04;92728.94;;;5.16;100.00
52735;BME280;38631;47.572;10.704;2023-04-08T08:30:29;92726.59;;;5.14;100.00
52735;BME280;38631;47.572;10.704;2023-04-08T08:32:55;92726.84;;;5.13;100.00
52735;BME280;38631;47.572;10.704;2023-04-08T08:35:23;92735.00;;;5.06;100.00
52735;BME280;38631;47.572;10.704;2023-04-08T08:37:48;92727.91;;;5.17;100.00
52735;BME280;38631;47.572;10.704;2023-04-08T08:40:14;92728.44;;;5.09;100.00
52735;BME280;38631;47.572;10.704;2023-04-08T08:42:40;92719.22;;;5.06;100.00
52735;BME280;38631;47.572;10.704;2023-04-08T08:45:06;92732.16;;;4.92;100.00
52735;BME280;38631;47.572;10.704;2023-04-08T08:47:32;92733.44;;;5.05;100.00
52735;BME280;38631;47.572;10.704;2023-04-08T08:49:57;92730.56;;;5.12;100.00
52735;BME280;38631;47.572;10.704;2023-04-08T08:52:23;92739.47;;;5.21;100.00
52735;BME280;38631;47.572;10.704;2023-04-08T08:54:58;92736.84;;;5.11;100.00
52735;BME280;38631;47.572;10.704;2023-04-08T08:57:23;92746.84;;;5.09;100.00
52735;BME280;38631;47.572;10.704;2023-04-08T08:59:49;92739.78;;;5.04;100.00
52735;BME280;38631;47.572;10.704;2023-04-08T09:04:58;92746.84;;;5.09;100.00
52735;BME280;38631;47.572;10.704;2023-04-08T09:07:26;92749.78;;;5.07;100.00
52735;BME280;38631;47.572;10.704;2023-04-08T09:09:53;92749.50;;;4.93;100.00
52735;BME280;38631;47.572;10.704;2023-04-08T09:12:18;92752.41;;;5.02;100.00
52735;BME280;38631;47.572;10.704;2023-04-08T09:14:44;92751.34;;;5.08;100.00
52735;BME280;38631;47.572;10.704;2023-04-08T09:17:10;92752.13;;;4.98;100.00
52735;BME280;38631;47.572;10.704;2023-04-08T09:19:36;92752.94;;;5.04;100.00
52735;BME280;38631;47.572;10.704;2023-04-08T09:22:09;92749.50;;;5.04;100.00
52735;BME280;38631;47.572;10.704;2023-04-08T09:24:36;92751.06;;;5.10;100.00
52735;BME280;38631;47.572;10.704;2023-04-08T09:27:02;92750.28;;;4.99;100.00
52735;BME280;38631;47.572;10.704;2023-04-08T09:29:28;92749.78;;;4.87;100.00
52735;BME280;38631;47.572;10.704;2023-04-08T09:31:58;92752.16;;;4.73;100.00
52735;BME280;38631;47.572;10.704;2023-04-08T09:34:23;92755.31;;;4.75;100.00
52735;BME280;38631;47.572;10.704;2023-04-08T09:36:50;92750.81;;;4.75;100.00
52735;BME280;38631;47.572;10.704;2023-04-08T09:39:15;92754.00;;;4.67;100.00
52735;BME280;38631;47.572;10.704;2023-04-08T09:41:41;92753.72;;;4.74;100.00
52735;BME280;38631;47.572;10.704;2023-04-08T09:44:08;92761.88;;;4.88;100.00
52735;BME280;38631;47.572;10.704;2023-04-08T09:57:16;92760.28;;;4.56;100.00
52735;BME280;38631;47.572;10.704;2023-04-08T09:59:51;92762.66;;;4.63;100.00
52735;BME280;38631;47.572;10.704;2023-04-08T10:02:24;92768.69;;;4.58;100.00
52735;BME280;38631;47.572;10.704;2023-04-08T10:04:52;92765.03;;;4.69;100.00
52735;BME280;38631;47.572;10.704;2023-04-08T10:07:20;92768.47;;;4.90;100.00
52735;BME280;38631;47.572;10.704;2023-04-08T10:09:45;92769.00;;;4.82;100.00
52735;BME280;38631;47.572;10.704;2023-04-08T10:12:11;92769.50;;;4.74;100.00
52735;BME280;38631;47.572;10.704;2023-04-08T10:14:36;92778.44;;;4.73;100.00
52735;BME280;38631;47.572;10.704;2023-04-08T10:17:25;92774.78;;;4.79;100.00
52735;BME280;38631;47.572;10.704;2023-04-08T10:19:56;92773.97;;;4.94;100.00
52735;BME280;38631;47.572;10.704;2023-04-08T10:27:44;92767.69;;;4.74;100.00
52735;BME280;38631;47.572;10.704;2023-04-08T10:32:54;92773.97;;;4.73;100.00
52735;BME280;38631;47.572;10.704;2023-04-08T10:35:36;92771.88;;;4.86;100.00
52735;BME280;38631;47.572;10.704;2023-04-08T10:38:01;92773.44;;;4.56;100.00
52735;BME280;38631;47.572;10.704;2023-04-08T10:40:27;92774.50;;;4.65;100.00
52735;BME280;38631;47.572;10.704;2023-04-08T10:42:56;92776.06;;;4.61;100.00
52735;BME280;38631;47.572;10.704;2023-04-08T10:45:22;92775.03;;;4.83;100.00
52735;BME280;38631;47.572;10.704;2023-04-08T10:47:49;92774.25;;;4.67;100.00
52735;BME280;38631;47.572;10.704;2023-04-08T10:50:16;92764.50;;;4.62;100.00
52735;BME280;38631;47.572;10.704;2023-04-08T10:52:50;92774.25;;;4.62;100.00
52735;BME280;38631;47.572;10.704;2023-04-08T10:55:22;92781.81;;;4.32;100.00
52735;BME280;38631;47.572;10.704;2023-04-08T10:57:49;92790.25;;;4.50;100.00
52735;BME280;38631;47.572;10.704;2023-04-08T11:00:19;92791.81;;;4.46;100.00
52735;BME280;38631;47.572;10.704;2023-04-08T11:03:08;92802.53;;;4.19;100.00
52735;BME280;38631;47.572;10.704;2023-04-08T11:05:34;92809.41;;;4.35;100.00
52735;BME280;38631;47.572;10.704;2023-04-08T11:08:01;92817.00;;;4.21;100.00
52735;BME280;38631;47.572;10.704;2023-04-08T11:10:27;92813.84;;;4.19;100.00
52735;BME280;38631;47.572;10.704;2023-04-08T11:12:56;92819.91;;;3.62;100.00
52735;BME280;38631;47.572;10.704;2023-04-08T11:15:25;92816.22;;;3.63;100.00
52735;BME280;38631;47.572;10.704;2023-04-08T11:17:52;92830.00;;;3.38;100.00
52735;BME280;38631;47.572;10.704;2023-04-08T11:20:19;92840.28;;;3.07;100.00
52735;BME280;38631;47.572;10.704;2023-04-08T11:22:45;92836.28;;;3.32;100.00
52735;BME280;38631;47.572;10.704;2023-04-08T11:25:11;92833.66;;;2.67;100.00
52735;BME280;38631;47.572;10.704;2023-04-08T11:27:37;92839.13;;;2.33;100.00
52735;BME280;38631;47.572;10.704;2023-04-08T11:30:05;92844.16;;;2.18;100.00
52735;BME280;38631;47.572;10.704;2023-04-08T11:32:30;92839.84;;;2.29;100.00
52735;BME280;38631;47.572;10.704;2023-04-08T11:35:03;92832.69;;;1.97;100.00
52735;BME280;38631;47.572;10.704;2023-04-08T11:37:36;92845.72;;;1.92;100.00
52735;BME280;38631;47.572;10.704;2023-04-08T11:40:09;92838.16;;;1.73;100.00
52735;BME280;38631;47.572;10.704;2023-04-08T11:42:35;92847.66;;;1.80;100.00
52735;BME280;38631;47.572;10.704;2023-04-08T11:45:09;92848.63;;;1.95;100.00
52735;BME280;38631;47.572;10.704;2023-04-08T11:47:35;92842.31;;;1.91;100.00
52735;BME280;38631;47.572;10.704;2023-04-08T11:50:01;92847.72;;;2.07;100.00
52735;BME280;38631;47.572;10.704;2023-04-08T11:52:49;92829.75;;;1.93;100.00
52735;BME280;38631;47.572;10.704;2023-04-08T11:55:29;92835.22;;;2.36;100.00
52735;BME280;38631;47.572;10.704;2023-04-08T11:57:56;92839.97;;;2.17;100.00
52735;BME280;38631;47.572;10.704;2023-04-08T12:00:25;92840.00;;;2.44;100.00
52735;BME280;38631;47.572;10.704;2023-04-08T12:02:52;92834.94;;;2.37;100.00
52735;BME280;38631;47.572;10.704;2023-04-08T12:05:17;92844.38;;;2.66;100.00
52735;BME280;38631;47.572;10.704;2023-04-08T12:07:43;92844.50;;;2.76;100.00
52735;BME280;38631;47.572;10.704;2023-04-08T12:10:09;92847.53;;;2.95;100.00
52735;BME280;38631;47.572;10.704;2023-04-08T12:12:35;92841.31;;;3.01;100.00
52735;BME280;38631;47.572;10.704;2023-04-08T12:15:01;92838.34;;;2.92;100.00
52735;BME280;38631;47.572;10.704;2023-04-08T12:17:27;92851.88;;;2.52;100.00
52735;BME280;38631;47.572;10.704;2023-04-08T12:19:52;92835.31;;;2.46;100.00
52735;BME280;38631;47.572;10.704;2023-04-08T12:22:17;92843.69;;;2.48;100.00
52735;BME280;38631;47.572;10.704;2023-04-08T12:24:43;92840.69;;;2.62;100.00
52735;BME280;38631;47.572;10.704;2023-04-08T12:27:08;92841.25;;;2.64;100.00
52735;BME280;38631;47.572;10.704;2023-04-08T12:29:34;92850.50;;;2.71;100.00
52735;BME280;38631;47.572;10.704;2023-04-08T12:31:59;92842.13;;;2.74;100.00
52735;BME280;38631;47.572;10.704;2023-04-08T12:34:24;92837.63;;;3.02;100.00
52735;BME280;38631;47.572;10.704;2023-04-08T12:36:50;92840.28;;;3.07;100.00
52735;BME280;38631;47.572;10.704;2023-04-08T12:39:15;92853.13;;;3.03;100.00
52735;BME280;38631;47.572;10.704;2023-04-08T12:41:41;92847.34;;;3.01;100.00
52735;BME280;38631;47.572;10.704;2023-04-08T12:44:06;92842.28;;;2.95;100.00
52735;BME280;38631;47.572;10.704;2023-04-08T12:46:32;92851.06;;;3.11;100.00
52735;BME280;38631;47.572;10.704;2023-04-08T12:48:58;92849.91;;;2.96;100.00
52735;BME280;38631;47.572;10.704;2023-04-08T12:51:23;92841.59;;;3.05;100.00
52735;BME280;38631;47.572;10.704;2023-04-08T12:53:50;92842.94;;;3.12;100.00
52735;BME280;38631;47.572;10.704;2023-04-08T12:56:16;92840.94;;;3.24;100.00
52735;BME280;38631;47.572;10.704;2023-04-08T12:58:41;92844.56;;;3.18;100.00
52735;BME280;38631;47.572;10.704;2023-04-08T13:01:07;92851.66;;;3.18;100.00
52735;BME280;38631;47.572;10.704;2023-04-08T13:03:32;92847.00;;;3.30;100.00
52735;BME280;38631;47.572;10.704;2023-04-08T13:05:59;92845.69;;;3.28;100.00
52735;BME280;38631;47.572;10.704;2023-04-08T13:08:24;92843.09;;;3.33;100.00